Time;durP1;ratioP1;P1;durP2;ratioP2;P2;SDS_P1;SDS_P2;PMS_P1;PMS_P2;Temp;Humidity;BMP_temperature;BMP_pressure;BME280_temperature;BME280_humidity;BME280_pressure;Samples;Min_cycle;Max_cycle;Signal;HPM_P1;HPM_P2
2021/07/23 00:01:55;;;;;;;3.57;2.77;;;17.40;99.90;;;;;;5045160;28;20229;-90
2021/07/23 00:04:20;;;;;;;4.63;2.03;;;17.50;99.90;;;;;;5036411;28;20340;-90
2021/07/23 00:06:48;;;;;;;2.73;1.60;;;17.50;99.90;;;;;;5061857;28;20749;-88
2021/07/23 00:09:14;;;;;;;3.30;2.10;;;17.50;99.90;;;;;;5046130;28;20687;-89
2021/07/23 00:11:40;;;;;;;3.10;1.77;;;17.50;99.90;;;;;;5046318;28;20287;-88
2021/07/23 00:14:06;;;;;;;3.20;1.80;;;17.50;99.90;;;;;;5036956;28;20285;-89
2021/07/23 00:16:31;;;;;;;1.93;1.60;;;17.60;99.90;;;;;;5041659;28;20325;-89
2021/07/23 00:18:57;;;;;;;3.33;2.13;;;17.60;99.90;;;;;;5027089;28;20281;-90
2021/07/23 00:21:23;;;;;;;3.77;2.33;;;17.60;99.90;;;;;;5037683;28;20228;-89
2021/07/23 00:23:48;;;;;;;2.87;1.67;;;17.50;99.90;;;;;;5044599;28;20898;-89
2021/07/23 00:26:18;;;;;;;2.27;1.93;;;17.50;99.90;;;;;;5026967;28;20234;-89
2021/07/23 00:28:44;;;;;;;3.00;1.70;;;17.50;99.90;;;;;;5020977;28;20243;-90
2021/07/23 00:31:10;;;;;;;2.10;1.70;;;17.50;99.90;;;;;;5035710;28;20309;-90
2021/07/23 00:33:35;;;;;;;4.03;2.17;;;17.50;99.90;;;;;;5021103;28;20198;-89
2021/07/23 00:36:01;;;;;;;2.33;1.57;;;17.50;99.90;;;;;;5051239;28;20225;-88
2021/07/23 00:38:27;;;;;;;3.20;1.47;;;17.60;99.90;;;;;;5033859;28;20233;-89
2021/07/23 00:40:53;;;;;;;2.47;1.60;;;17.70;99.90;;;;;;5052717;28;20229;-87
2021/07/23 00:43:19;;;;;;;2.47;1.80;;;17.70;99.90;;;;;;5034485;28;20236;-91
2021/07/23 00:45:45;;;;;;;5.97;1.90;;;17.60;99.90;;;;;;5049729;28;20916;-87
2021/07/23 00:48:11;;;;;;;3.33;2.23;;;17.60;99.90;;;;;;5051078;28;20202;-90
2021/07/23 00:50:37;;;;;;;3.87;2.20;;;17.60;99.90;;;;;;5020948;28;20687;-88
2021/07/23 00:53:04;;;;;;;3.77;2.13;;;17.60;99.90;;;;;;5038828;28;20233;-88
2021/07/23 00:55:30;;;;;;;4.23;2.20;;;17.60;99.90;;;;;;5020876;28;20319;-89
2021/07/23 00:57:58;;;;;;;5.13;2.40;;;17.60;99.90;;;;;;5052996;28;20195;-88
2021/07/23 01:00:24;;;;;;;2.80;2.57;;;17.50;99.90;;;;;;5049645;28;20232;-88
2021/07/23 01:02:52;;;;;;;5.27;2.80;;;17.50;99.90;;;;;;5034553;28;20556;-90
2021/07/23 01:05:18;;;;;;;4.50;2.80;;;17.50;99.90;;;;;;5026944;28;20210;-90
2021/07/23 01:07:45;;;;;;;2.77;2.00;;;17.50;99.90;;;;;;5024665;28;20209;-90
2021/07/23 01:10:11;;;;;;;5.53;2.70;;;17.50;99.90;;;;;;5059270;28;20316;-89
2021/07/23 01:12:37;;;;;;;3.37;2.13;;;17.50;99.90;;;;;;5043983;28;20189;-89
2021/07/23 01:15:04;;;;;;;7.53;3.00;;;17.50;99.90;;;;;;5016488;28;20254;-88
2021/07/23 01:17:30;;;;;;;4.50;1.90;;;17.50;99.90;;;;;;5044610;28;20209;-89
2021/07/23 01:20:04;;;;;;;5.83;2.63;;;17.50;99.90;;;;;;5050873;28;20736;-91
2021/07/23 01:22:31;;;;;;;4.90;2.33;;;17.40;99.90;;;;;;5043868;28;20222;-91
2021/07/23 01:24:57;;;;;;;3.63;2.07;;;17.40;99.90;;;;;;5026985;28;21300;-91
2021/07/23 01:27:28;;;;;;;3.53;2.00;;;17.40;99.90;;;;;;5030565;28;20198;-94
2021/07/23 01:30:01;;;;;;;5.00;2.30;;;17.30;99.90;;;;;;5035012;28;20224;-87
2021/07/23 01:32:27;;;;;;;3.60;2.00;;;17.20;99.90;;;;;;5037612;28;20324;-92
2021/07/23 01:34:52;;;;;;;5.07;2.50;;;17.20;99.90;;;;;;5017218;28;20307;-92
2021/07/23 01:37:19;;;;;;;3.27;2.17;;;17.30;99.90;;;;;;5019881;28;20217;-91
2021/07/23 01:39:46;;;;;;;4.07;2.30;;;17.30;99.90;;;;;;5061132;28;20686;-89
2021/07/23 01:42:11;;;;;;;3.97;2.27;;;17.30;99.90;;;;;;5041055;28;20233;-92
2021/07/23 01:44:37;;;;;;;3.50;2.23;;;17.20;99.90;;;;;;5046057;28;20276;-90
2021/07/23 01:47:03;;;;;;;3.10;2.17;;;17.20;99.90;;;;;;5016932;28;20218;-90
2021/07/23 01:49:29;;;;;;;4.40;2.23;;;17.20;99.90;;;;;;5026512;28;20244;-88
2021/07/23 01:51:54;;;;;;;6.00;2.47;;;17.30;99.90;;;;;;5015725;28;20194;-86
2021/07/23 01:54:20;;;;;;;3.47;2.53;;;17.20;99.90;;;;;;5040301;28;21097;-89
2021/07/23 01:56:46;;;;;;;3.60;1.60;;;17.20;99.90;;;;;;4990430;28;20280;-89
2021/07/23 01:59:15;;;;;;;3.33;2.67;;;17.20;99.90;;;;;;5030027;28;20318;-90
2021/07/23 02:01:40;;;;;;;5.83;3.40;;;17.20;99.90;;;;;;5013885;28;20237;-91
2021/07/23 02:04:06;;;;;;;5.80;2.70;;;17.20;99.90;;;;;;5016506;28;20570;-90
2021/07/23 02:06:32;;;;;;;5.30;2.63;;;17.20;99.90;;;;;;5018474;28;20227;-92
2021/07/23 02:08:57;;;;;;;6.43;3.10;;;17.20;99.90;;;;;;5031077;28;20237;-90
2021/07/23 02:11:23;;;;;;;6.43;2.70;;;17.10;99.90;;;;;;5019135;28;21084;-89
2021/07/23 02:13:49;;;;;;;5.57;3.00;;;17.10;99.90;;;;;;5029862;28;20210;-90
2021/07/23 02:16:14;;;;;;;4.67;2.10;;;17.10;99.90;;;;;;5028954;28;20738;-87
2021/07/23 02:18:40;;;;;;;3.07;2.10;;;17.00;99.90;;;;;;5012906;28;20201;-89
2021/07/23 02:21:07;;;;;;;4.80;2.93;;;17.10;99.90;;;;;;5038304;28;20218;-89
2021/07/23 02:23:33;;;;;;;5.43;2.93;;;17.10;99.90;;;;;;5044140;28;20225;-89
2021/07/23 02:25:58;;;;;;;3.80;2.50;;;17.00;99.90;;;;;;5032516;28;20711;-88
2021/07/23 02:28:24;;;;;;;4.77;2.73;;;17.00;99.90;;;;;;5059017;28;20213;-89
2021/07/23 02:30:50;;;;;;;5.00;2.53;;;17.00;99.90;;;;;;5026558;28;20193;-90
2021/07/23 02:33:15;;;;;;;4.93;3.27;;;17.00;99.90;;;;;;5044062;28;20751;-90
2021/07/23 02:35:41;;;;;;;4.23;2.73;;;17.00;99.90;;;;;;5059705;28;20714;-90
2021/07/23 02:38:07;;;;;;;3.80;2.73;;;16.90;99.90;;;;;;5060171;28;20225;-92
2021/07/23 02:40:33;;;;;;;9.40;3.80;;;16.90;99.90;;;;;;5059708;28;20219;-90
2021/07/23 02:42:58;;;;;;;3.43;3.13;;;16.90;99.90;;;;;;5034308;28;20278;-89
2021/07/23 02:45:24;;;;;;;5.50;3.47;;;17.00;99.90;;;;;;5043235;28;20233;-90
2021/07/23 02:47:50;;;;;;;5.37;3.33;;;17.00;99.90;;;;;;5055199;28;21115;-89
2021/07/23 02:50:16;;;;;;;6.03;3.97;;;17.10;99.90;;;;;;5053311;28;20754;-90
2021/07/23 02:52:42;;;;;;;5.10;3.50;;;17.20;99.90;;;;;;5044806;28;20225;-89
2021/07/23 02:55:08;;;;;;;6.07;3.50;;;17.20;99.90;;;;;;5037697;28;20584;-90
2021/07/23 02:57:34;;;;;;;4.43;3.40;;;17.20;99.90;;;;;;5038088;28;20455;-89
2021/07/23 03:00:00;;;;;;;5.10;3.50;;;17.20;99.90;;;;;;5051444;28;20752;-89
2021/07/23 03:02:25;;;;;;;14.63;3.57;;;17.30;99.90;;;;;;5052825;28;20287;-89
2021/07/23 03:04:51;;;;;;;7.93;3.73;;;17.30;99.90;;;;;;5028259;28;20245;-89
2021/07/23 03:07:17;;;;;;;5.90;3.70;;;17.40;99.90;;;;;;5019482;28;20221;-89
2021/07/23 03:09:42;;;;;;;6.87;3.63;;;17.30;99.90;;;;;;5035990;28;20193;-88
2021/07/23 03:12:08;;;;;;;6.27;3.70;;;17.30;99.90;;;;;;5036780;28;20225;-87
2021/07/23 03:14:34;;;;;;;7.77;3.70;;;17.30;99.90;;;;;;5036087;28;20687;-87
2021/07/23 03:17:00;;;;;;;7.03;3.80;;;17.40;99.90;;;;;;5050878;28;21000;-88
2021/07/23 03:19:26;;;;;;;4.57;3.57;;;17.40;99.90;;;;;;5035875;28;20213;-89
2021/07/23 03:21:54;;;;;;;6.23;4.07;;;17.30;99.90;;;;;;5050859;28;20579;-88
2021/07/23 03:24:20;;;;;;;8.03;4.53;;;17.40;99.90;;;;;;5052689;28;20276;-88
2021/07/23 03:26:46;;;;;;;8.07;4.87;;;17.40;99.90;;;;;;5034468;28;20701;-89
2021/07/23 03:29:12;;;;;;;9.40;5.50;;;17.40;99.90;;;;;;5049287;28;20221;-90
2021/07/23 03:31:37;;;;;;;8.33;5.47;;;17.40;99.90;;;;;;5016005;28;20229;-89
2021/07/23 03:34:04;;;;;;;9.93;6.80;;;17.40;99.90;;;;;;5014861;28;20194;-88
2021/07/23 03:36:30;;;;;;;9.43;5.87;;;17.40;99.90;;;;;;5017452;28;20182;-88
2021/07/23 03:38:56;;;;;;;10.53;6.13;;;17.40;99.90;;;;;;5025573;28;20221;-90
2021/07/23 03:41:22;;;;;;;9.13;5.93;;;17.40;99.90;;;;;;5039646;28;20213;-87
2021/07/23 03:43:47;;;;;;;12.80;5.80;;;17.40;99.90;;;;;;5038622;28;20217;-89
2021/07/23 03:46:13;;;;;;;8.57;5.73;;;17.30;99.90;;;;;;5036691;28;20237;-89
2021/07/23 03:48:39;;;;;;;8.87;4.93;;;17.30;99.90;;;;;;5038355;28;20662;-89
2021/07/23 03:51:05;;;;;;;9.33;5.77;;;17.40;99.90;;;;;;5016139;28;20217;-89
2021/07/23 03:53:30;;;;;;;8.20;4.30;;;17.40;99.90;;;;;;5032264;28;20316;-89
2021/07/23 03:55:59;;;;;;;9.27;5.30;;;17.30;99.90;;;;;;5025651;28;20977;-90
2021/07/23 03:58:25;;;;;;;9.40;5.37;;;17.20;99.90;;;;;;5049559;28;20270;-90
2021/07/23 04:00:50;;;;;;;8.33;5.67;;;17.10;99.90;;;;;;5036850;28;20223;-88
2021/07/23 04:03:16;;;;;;;7.87;4.93;;;17.10;99.90;;;;;;5034662;28;20248;-91
2021/07/23 04:05:46;;;;;;;4.77;3.90;;;17.20;99.90;;;;;;5036690;28;20253;-89
2021/07/23 04:08:11;;;;;;;4.93;3.47;;;17.20;99.90;;;;;;5051388;28;20217;-87
2021/07/23 04:10:37;;;;;;;5.63;3.10;;;17.10;99.90;;;;;;5035806;28;20932;-89
2021/07/23 04:13:03;;;;;;;7.40;3.13;;;17.10;99.90;;;;;;5049813;28;20244;-91
2021/07/23 04:15:29;;;;;;;7.53;3.17;;;17.10;99.90;;;;;;5017104;28;20190;-90
2021/07/23 04:17:54;;;;;;;5.33;2.77;;;17.10;99.90;;;;;;5030418;28;20222;-90
2021/07/23 04:20:20;;;;;;;4.30;2.77;;;17.00;99.90;;;;;;5021457;28;20210;-89
2021/07/23 04:22:46;;;;;;;4.27;2.80;;;17.00;99.90;;;;;;5045019;28;20229;-90
2021/07/23 04:25:12;;;;;;;4.63;2.53;;;16.90;99.90;;;;;;5058307;28;20757;-89
2021/07/23 04:27:38;;;;;;;4.90;3.23;;;17.00;99.90;;;;;;5042024;28;20360;-89
2021/07/23 04:30:04;;;;;;;4.97;2.83;;;17.00;99.90;;;;;;5040304;28;20226;-90
2021/07/23 04:32:30;;;;;;;4.67;3.53;;;17.00;99.90;;;;;;5016264;28;20218;-89
2021/07/23 04:34:56;;;;;;;4.40;3.13;;;17.00;99.90;;;;;;5027786;28;20228;-90
2021/07/23 04:37:21;;;;;;;5.63;3.00;;;17.00;99.90;;;;;;5033801;28;20229;-91
2021/07/23 04:39:47;;;;;;;4.43;2.93;;;17.10;99.90;;;;;;5040701;28;20198;-89
2021/07/23 04:42:13;;;;;;;7.47;3.30;;;17.10;99.90;;;;;;5024558;28;20730;-88
2021/07/23 04:44:39;;;;;;;5.10;2.33;;;17.10;99.90;;;;;;5036348;28;20237;-87
2021/07/23 04:47:04;;;;;;;4.40;2.53;;;17.10;99.90;;;;;;5024322;28;20638;-88
2021/07/23 04:49:30;;;;;;;2.57;2.23;;;17.10;99.90;;;;;;5029853;28;20217;-88
2021/07/23 04:51:56;;;;;;;3.43;2.63;;;17.10;99.90;;;;;;5027759;28;20196;-90
2021/07/23 04:54:22;;;;;;;4.13;2.30;;;17.20;99.90;;;;;;5061172;28;20224;-89
2021/07/23 04:56:51;;;;;;;3.03;2.50;;;17.20;99.90;;;;;;5042267;28;20785;-90
2021/07/23 04:59:16;;;;;;;5.47;2.80;;;17.20;99.90;;;;;;5008024;28;20233;-89
2021/07/23 05:01:42;;;;;;;5.13;3.07;;;17.20;99.90;;;;;;5032206;28;20556;-91
2021/07/23 05:04:09;;;;;;;3.77;2.57;;;17.20;99.90;;;;;;5015082;28;20666;-89
2021/07/23 05:06:35;;;;;;;6.33;2.67;;;17.20;99.90;;;;;;5015278;28;20190;-90
2021/07/23 05:09:00;;;;;;;5.37;2.57;;;17.30;99.90;;;;;;5050210;28;20232;-90
2021/07/23 05:11:26;;;;;;;3.90;2.17;;;17.30;99.90;;;;;;5039049;28;20232;-89
2021/07/23 05:13:52;;;;;;;2.83;1.87;;;17.40;99.90;;;;;;5016457;28;20929;-91
2021/07/23 05:16:18;;;;;;;5.87;3.10;;;17.40;99.90;;;;;;5049204;28;20214;-87
2021/07/23 05:18:44;;;;;;;3.07;1.93;;;17.50;99.90;;;;;;5030290;28;20208;-88
2021/07/23 05:21:10;;;;;;;3.40;2.23;;;17.40;99.90;;;;;;5051339;28;20214;-90
2021/07/23 05:23:42;;;;;;;4.50;2.40;;;17.40;99.90;;;;;;5051281;28;20229;-91
2021/07/23 05:26:09;;;;;;;2.87;2.53;;;17.30;99.90;;;;;;5051878;28;20228;-90
2021/07/23 05:28:35;;;;;;;6.43;2.33;;;17.40;99.90;;;;;;5031632;28;20224;-90
2021/07/23 05:31:01;;;;;;;4.37;2.40;;;17.40;99.90;;;;;;5040643;28;20190;-91
2021/07/23 05:33:27;;;;;;;3.70;2.27;;;17.40;99.90;;;;;;5042009;28;20190;-91
2021/07/23 05:35:52;;;;;;;3.67;2.43;;;17.50;99.90;;;;;;5032444;28;20213;-89
2021/07/23 05:38:18;;;;;;;9.27;2.80;;;17.50;99.90;;;;;;5060614;28;20316;-89
2021/07/23 05:40:44;;;;;;;3.87;2.27;;;17.50;99.90;;;;;;5035284;28;20692;-90
2021/07/23 05:43:10;;;;;;;2.27;1.93;;;17.60;99.90;;;;;;5015001;28;20691;-91
2021/07/23 05:45:40;;;;;;;4.30;2.10;;;17.60;99.90;;;;;;5015330;28;20245;-90
2021/07/23 05:48:06;;;;;;;2.17;1.70;;;17.60;99.90;;;;;;5013868;28;20237;-88
2021/07/23 05:50:33;;;;;;;5.67;2.87;;;17.60;99.90;;;;;;5033292;28;20244;-88
2021/07/23 05:52:59;;;;;;;2.87;2.00;;;17.60;99.90;;;;;;5043089;28;20311;-88
2021/07/23 05:55:24;;;;;;;3.37;2.10;;;17.70;99.90;;;;;;5047568;28;20225;-85
2021/07/23 05:57:50;;;;;;;2.87;1.87;;;17.70;99.90;;;;;;5020864;28;20284;-85
2021/07/23 06:00:16;;;;;;;3.53;2.07;;;17.70;99.90;;;;;;5056385;28;20232;-84
2021/07/23 06:02:42;;;;;;;2.43;2.23;;;17.80;99.90;;;;;;5039098;28;20242;-85
2021/07/23 06:05:08;;;;;;;4.33;1.90;;;18.00;99.90;;;;;;5045613;28;20218;-84
2021/07/23 06:07:37;;;;;;;4.53;1.93;;;18.10;99.90;;;;;;5021096;28;20256;-85
2021/07/23 06:10:03;;;;;;;3.90;2.63;;;18.20;99.90;;;;;;5031862;28;20313;-85
2021/07/23 06:12:29;;;;;;;6.13;2.60;;;18.30;99.90;;;;;;5033865;28;20197;-84
2021/07/23 06:14:54;;;;;;;2.20;1.80;;;18.40;99.90;;;;;;5037514;28;20241;-85
2021/07/23 06:17:20;;;;;;;2.57;1.70;;;18.40;99.90;;;;;;5038614;28;20222;-84
2021/07/23 06:19:46;;;;;;;7.87;3.20;;;18.40;99.90;;;;;;5038018;28;20218;-88
2021/07/23 06:22:12;;;;;;;5.97;1.70;;;18.50;99.90;;;;;;5023432;28;20225;-84
2021/07/23 06:24:40;;;;;;;3.23;2.23;;;18.50;99.90;;;;;;5042551;28;21405;-83
2021/07/23 06:27:06;;;;;;;2.40;2.10;;;18.60;99.90;;;;;;5025478;28;20247;-84
2021/07/23 06:29:31;;;;;;;3.07;2.13;;;18.60;99.90;;;;;;5056470;28;20254;-87
2021/07/23 06:31:58;;;;;;;3.43;2.37;;;18.70;99.90;;;;;;5045679;28;20247;-82
2021/07/23 06:34:24;;;;;;;2.40;1.90;;;18.80;99.90;;;;;;5022781;28;20301;-84
2021/07/23 06:36:49;;;;;;;4.63;2.77;;;18.80;99.90;;;;;;5024399;28;20550;-84
2021/07/23 06:39:15;;;;;;;3.63;1.97;;;18.90;99.90;;;;;;5041616;28;20405;-82
2021/07/23 06:41:41;;;;;;;2.40;2.00;;;18.90;99.90;;;;;;5057305;28;20624;-83
2021/07/23 06:44:06;;;;;;;4.47;2.00;;;19.00;99.90;;;;;;5062897;28;20225;-83
2021/07/23 06:46:32;;;;;;;4.33;2.23;;;19.00;99.90;;;;;;5049755;28;20224;-84
2021/07/23 06:48:58;;;;;;;4.93;2.40;;;19.10;99.90;;;;;;5042447;28;20201;-85
2021/07/23 06:51:23;;;;;;;2.53;2.03;;;19.10;99.90;;;;;;5043267;28;20177;-85
2021/07/23 06:53:49;;;;;;;3.27;2.30;;;19.20;99.90;;;;;;5059625;28;20229;-84
2021/07/23 06:56:15;;;;;;;3.73;2.07;;;19.30;99.90;;;;;;5059950;28;20291;-85
2021/07/23 06:58:41;;;;;;;2.87;2.07;;;19.30;99.90;;;;;;5060446;28;20240;-87
2021/07/23 07:01:07;;;;;;;4.37;2.17;;;19.40;99.90;;;;;;5062620;28;20685;-87
2021/07/23 07:03:33;;;;;;;4.83;2.50;;;19.50;99.90;;;;;;5043272;28;20205;-84
2021/07/23 07:06:01;;;;;;;3.03;1.70;;;19.60;99.90;;;;;;5053593;28;20236;-90
2021/07/23 07:08:27;;;;;;;3.07;2.10;;;19.60;99.90;;;;;;5060015;28;20218;-84
2021/07/23 07:10:52;;;;;;;1.87;1.70;;;19.80;99.90;;;;;;5035889;28;20625;-84
2021/07/23 07:13:18;;;;;;;7.03;1.90;;;19.90;99.90;;;;;;5062660;28;20236;-84
2021/07/23 07:15:44;;;;;;;2.30;1.50;;;19.90;99.90;;;;;;5062429;28;20534;-84
2021/07/23 07:18:09;;;;;;;3.60;1.60;;;20.00;99.90;;;;;;5061091;28;20670;-87
2021/07/23 07:20:35;;;;;;;3.27;2.40;;;20.00;99.90;;;;;;5060540;28;20228;-85
2021/07/23 07:23:01;;;;;;;5.40;2.03;;;20.00;99.90;;;;;;5029762;28;20774;-86
2021/07/23 07:25:27;;;;;;;4.43;1.80;;;20.10;99.90;;;;;;5030375;28;20268;-90
2021/07/23 07:27:53;;;;;;;2.30;1.23;;;19.90;99.90;;;;;;5031659;28;20186;-91
2021/07/23 07:30:20;;;;;;;2.70;2.00;;;20.00;99.90;;;;;;5032063;28;20198;-87
2021/07/23 07:32:45;;;;;;;5.80;2.20;;;20.20;99.90;;;;;;5037987;28;20332;-85
2021/07/23 07:35:11;;;;;;;2.27;1.70;;;20.40;99.90;;;;;;5039131;28;20222;-85
2021/07/23 07:37:37;;;;;;;3.33;2.27;;;20.50;99.90;;;;;;5040440;28;20580;-88
2021/07/23 07:40:04;;;;;;;6.50;2.73;;;20.70;99.90;;;;;;5040773;28;20186;-86
2021/07/23 07:42:30;;;;;;;6.27;2.63;;;20.80;99.90;;;;;;5034389;28;20222;-84
2021/07/23 07:44:59;;;;;;;2.43;2.00;;;21.00;99.90;;;;;;5040588;28;20241;-85
2021/07/23 07:47:25;;;;;;;1.90;1.70;;;20.90;99.90;;;;;;5036776;28;20300;-84
2021/07/23 07:49:51;;;;;;;4.43;2.30;;;20.70;99.90;;;;;;5021028;28;20701;-87
2021/07/23 07:52:18;;;;;;;2.20;1.57;;;20.40;99.90;;;;;;5040566;28;20229;-85
2021/07/23 07:54:47;;;;;;;4.03;2.00;;;20.60;99.90;;;;;;5023687;28;20189;-85
2021/07/23 07:57:13;;;;;;;2.27;1.70;;;20.50;99.90;;;;;;5059144;28;20233;-85
2021/07/23 07:59:39;;;;;;;2.47;1.53;;;20.50;99.90;;;;;;5040303;28;20312;-85
2021/07/23 08:02:09;;;;;;;4.53;2.00;;;20.50;99.90;;;;;;5048006;28;20225;-85
2021/07/23 08:04:36;;;;;;;1.90;1.60;;;20.40;99.90;;;;;;5037193;28;20746;-85
2021/07/23 08:07:06;;;;;;;2.10;1.27;;;20.20;99.90;;;;;;5038716;28;20194;-84
2021/07/23 08:09:46;;;;;;;3.67;2.00;;;20.30;99.90;;;;;;5032532;28;20305;-84
2021/07/23 08:12:11;;;;;;;3.23;1.40;;;20.30;99.90;;;;;;5041581;28;20229;-88
2021/07/23 08:14:37;;;;;;;2.80;1.90;;;20.20;99.90;;;;;;5026579;28;20224;-87
2021/07/23 08:17:03;;;;;;;3.03;1.60;;;20.20;99.90;;;;;;5025092;28;20250;-87
2021/07/23 08:19:29;;;;;;;2.70;1.60;;;20.20;99.90;;;;;;5008116;28;20638;-90
2021/07/23 08:21:54;;;;;;;2.33;1.90;;;20.10;99.90;;;;;;5010420;28;20229;-85
2021/07/23 08:24:20;;;;;;;7.73;1.70;;;20.00;99.90;;;;;;5048722;28;21139;-85
2021/07/23 08:26:46;;;;;;;2.47;1.43;;;19.90;99.90;;;;;;5000306;28;20703;-85
2021/07/23 08:29:12;;;;;;;2.37;1.80;;;19.70;99.90;;;;;;5031160;28;20312;-86
2021/07/23 08:31:37;;;;;;;2.90;1.80;;;19.70;99.90;;;;;;5010337;28;20528;-85
2021/07/23 08:34:03;;;;;;;1.43;1.23;;;19.60;99.90;;;;;;5028653;28;20198;-89
2021/07/23 08:36:29;;;;;;;5.13;1.73;;;19.70;99.90;;;;;;5015046;28;20321;-83
2021/07/23 08:38:54;;;;;;;2.90;1.73;;;19.50;99.90;;;;;;5055699;28;20697;-86
2021/07/23 08:41:20;;;;;;;4.80;1.90;;;19.50;99.90;;;;;;5040920;28;20205;-85
2021/07/23 08:43:46;;;;;;;1.57;1.47;;;19.40;99.90;;;;;;5040018;28;20232;-84
2021/07/23 08:46:15;;;;;;;3.10;1.43;;;19.30;99.90;;;;;;5055454;28;20244;-87
2021/07/23 08:48:40;;;;;;;3.30;1.70;;;19.20;99.90;;;;;;5037934;28;20200;-86
2021/07/23 08:51:10;;;;;;;2.13;1.70;;;19.10;99.90;;;;;;5038157;28;20213;-85
2021/07/23 08:53:35;;;;;;;2.80;2.07;;;19.10;99.90;;;;;;5036767;28;20694;-87
2021/07/23 08:56:01;;;;;;;4.47;1.77;;;19.10;99.90;;;;;;5018938;28;20706;-90
2021/07/23 08:58:28;;;;;;;3.07;1.70;;;19.20;99.90;;;;;;5043048;28;20221;-87
2021/07/23 09:00:58;;;;;;;1.70;1.60;;;19.30;99.90;;;;;;5038986;28;20200;-87
2021/07/23 09:03:28;;;;;;;3.10;2.00;;;19.30;99.90;;;;;;5039240;28;20222;-85
2021/07/23 09:05:54;;;;;;;3.07;2.40;;;19.50;99.90;;;;;;5037352;28;20240;-86
2021/07/23 09:08:21;;;;;;;3.70;1.80;;;19.60;99.90;;;;;;5035998;28;20249;-86
2021/07/23 09:11:04;;;;;;;2.70;2.13;;;19.60;99.90;;;;;;5035810;28;20682;-88
2021/07/23 09:13:30;;;;;;;3.70;2.23;;;19.80;99.90;;;;;;5037195;28;20553;-86
2021/07/23 09:15:58;;;;;;;4.07;2.33;;;19.90;99.90;;;;;;5037977;28;20224;-85
2021/07/23 09:18:29;;;;;;;3.10;2.20;;;19.80;99.90;;;;;;5022206;28;21159;-84
2021/07/23 09:20:59;;;;;;;3.47;1.87;;;19.80;99.90;;;;;;5039111;28;20214;-86
2021/07/23 09:23:37;;;;;;;4.33;2.20;;;19.60;99.90;;;;;;5039419;28;20237;-87
2021/07/23 09:26:11;;;;;;;4.97;1.83;;;19.70;99.90;;;;;;5037985;28;20222;-91
2021/07/23 09:28:56;;;;;;;2.47;1.73;;;19.90;99.90;;;;;;5037178;28;20221;-86
2021/07/23 09:31:24;;;;;;;3.80;2.00;;;20.10;99.90;;;;;;5021263;28;20214;-87
2021/07/23 09:33:59;;;;;;;3.10;1.77;;;20.00;99.90;;;;;;5052863;28;20572;-89
2021/07/23 09:36:26;;;;;;;2.13;1.70;;;19.80;99.90;;;;;;5035521;28;20197;-89
2021/07/23 09:39:01;;;;;;;3.93;1.90;;;19.70;99.90;;;;;;5053760;28;20824;-90
2021/07/23 09:41:27;;;;;;;2.07;1.87;;;19.90;99.90;;;;;;5046038;28;20236;-87
2021/07/23 09:44:01;;;;;;;8.70;2.07;;;19.90;99.90;;;;;;5055653;28;20253;-91
2021/07/23 09:46:29;;;;;;;3.87;1.77;;;19.90;99.90;;;;;;5062651;28;20224;-87
2021/07/23 09:48:57;;;;;;;3.57;2.10;;;20.10;99.90;;;;;;5054178;28;20276;-87
2021/07/23 09:51:25;;;;;;;3.03;1.90;;;20.00;99.90;;;;;;5038114;28;20545;-85
2021/07/23 09:53:56;;;;;;;2.07;1.30;;;20.10;99.90;;;;;;5054741;28;20318;-88
2021/07/23 09:56:24;;;;;;;3.17;2.10;;;20.20;99.90;;;;;;5061252;28;20627;-89
2021/07/23 09:58:57;;;;;;;3.70;2.20;;;20.10;99.90;;;;;;5055546;28;20578;-90
2021/07/23 10:01:28;;;;;;;2.83;2.00;;;19.90;99.90;;;;;;5043912;28;20217;-87
2021/07/23 10:03:58;;;;;;;3.53;2.10;;;19.90;99.90;;;;;;5054823;28;20222;-87
2021/07/23 10:06:33;;;;;;;3.57;2.20;;;19.90;99.90;;;;;;5058856;28;20260;-87
2021/07/23 10:09:09;;;;;;;2.57;1.30;;;20.30;99.90;;;;;;5058129;28;20246;-85
2021/07/23 10:11:36;;;;;;;2.63;1.57;;;20.30;99.90;;;;;;5060890;28;20247;-89
2021/07/23 10:14:03;;;;;;;4.50;2.37;;;20.20;99.90;;;;;;5049180;28;20565;-87
2021/07/23 10:16:31;;;;;;;4.20;2.33;;;20.30;99.90;;;;;;5048222;28;20263;-86
2021/07/23 10:18:58;;;;;;;3.33;2.03;;;20.40;99.90;;;;;;5055833;28;20216;-89
2021/07/23 10:21:24;;;;;;;3.57;2.17;;;20.40;99.90;;;;;;5056841;28;20201;-87
2021/07/23 10:23:50;;;;;;;2.10;1.70;;;20.30;99.90;;;;;;5056376;28;20233;-90
2021/07/23 10:26:18;;;;;;;2.77;1.67;;;20.20;99.90;;;;;;5038862;28;20261;-90
2021/07/23 10:28:43;;;;;;;3.27;1.57;;;20.50;99.90;;;;;;5049085;28;20900;-90
2021/07/23 10:31:21;;;;;;;2.43;1.40;;;20.50;99.90;;;;;;5038017;28;20221;-89
2021/07/23 10:33:55;;;;;;;4.80;2.13;;;20.40;99.90;;;;;;5037956;28;20215;-89
2021/07/23 10:36:27;;;;;;;2.80;1.73;;;20.40;99.90;;;;;;5012553;28;20656;-86
2021/07/23 10:39:05;;;;;;;3.80;2.30;;;20.20;99.90;;;;;;5036652;28;20245;-85
2021/07/23 10:41:39;;;;;;;2.47;1.77;;;20.50;99.90;;;;;;5047434;28;20571;-87
2021/07/23 10:44:32;;;;;;;3.80;2.23;;;20.60;99.90;;;;;;5046122;28;20225;-86
2021/07/23 10:46:59;;;;;;;3.93;1.90;;;20.50;99.90;;;;;;5038544;28;20328;-88
2021/07/23 10:49:28;;;;;;;3.53;1.73;;;20.70;99.90;;;;;;5030472;28;20756;-88
2021/07/23 10:52:00;;;;;;;3.67;1.73;;;20.80;99.90;;;;;;5046306;28;20204;-89
2021/07/23 10:54:33;;;;;;;1.57;1.27;;;21.30;99.90;;;;;;5029804;28;20244;-88
2021/07/23 10:57:02;;;;;;;3.03;1.83;;;21.30;99.90;;;;;;5045955;28;20241;-87
2021/07/23 10:59:43;;;;;;;2.00;1.50;;;21.60;99.90;;;;;;5026949;28;20222;-86
2021/07/23 11:02:16;;;;;;;3.87;2.13;;;21.60;99.90;;;;;;5037038;28;20648;-88
2021/07/23 11:04:45;;;;;;;3.03;2.07;;;21.40;99.90;;;;;;5029011;28;20222;-86
2021/07/23 11:07:12;;;;;;;2.97;1.93;;;21.80;99.90;;;;;;5029762;28;20225;-88
2021/07/23 11:09:39;;;;;;;2.40;1.90;;;21.80;99.90;;;;;;5031928;28;20205;-88
2021/07/23 11:12:31;;;;;;;1.63;1.50;;;21.80;99.90;;;;;;5033820;28;20214;-88
2021/07/23 11:15:02;;;;;;;2.23;1.60;;;21.70;99.90;;;;;;5039451;28;20222;-92
2021/07/23 11:17:28;;;;;;;2.80;2.20;;;22.00;99.90;;;;;;5041123;28;20275;-88
2021/07/23 11:20:04;;;;;;;4.07;2.20;;;22.30;99.90;;;;;;5040943;28;20213;-85
2021/07/23 11:22:36;;;;;;;1.90;1.60;;;22.00;99.90;;;;;;5041259;28;20682;-87
2021/07/23 11:25:11;;;;;;;4.60;1.53;;;22.30;99.90;;;;;;5024004;28;20249;-91
2021/07/23 11:27:39;;;;;;;2.00;1.80;;;22.30;99.90;;;;;;5040516;28;20194;-87
2021/07/23 11:30:26;;;;;;;2.10;1.70;;;22.30;99.90;;;;;;5025549;28;20225;-90
2021/07/23 11:32:54;;;;;;;5.67;1.70;;;22.30;99.90;;;;;;5048157;28;20232;-89
2021/07/23 11:35:25;;;;;;;5.63;2.43;;;22.50;99.90;;;;;;5025807;28;20296;-86
2021/07/23 11:37:54;;;;;;;4.60;1.70;;;22.60;99.90;;;;;;5033841;28;20221;-89
2021/07/23 11:40:22;;;;;;;4.27;1.93;;;22.70;99.90;;;;;;5031141;28;20524;-89
2021/07/23 11:42:54;;;;;;;3.43;1.60;;;22.80;99.90;;;;;;5014741;28;20222;-88
2021/07/23 11:45:36;;;;;;;4.30;1.77;;;22.90;99.90;;;;;;5036584;28;20217;-87
2021/07/23 11:48:12;;;;;;;5.17;1.80;;;22.70;99.90;;;;;;5050106;28;20214;-87
2021/07/23 11:50:48;;;;;;;1.88;1.42;;;22.30;99.90;;;;;;5048546;28;20790;-87
2021/07/23 11:53:15;;;;;;;4.60;1.67;;;22.60;99.90;;;;;;5050025;28;20230;-86
2021/07/23 11:55:42;;;;;;;3.40;1.90;;;22.20;99.90;;;;;;5018469;28;20214;-89
2021/07/23 11:58:21;;;;;;;1.67;1.40;;;22.20;99.90;;;;;;5047928;28;20761;-87
2021/07/23 12:00:47;;;;;;;2.53;1.70;;;21.90;99.90;;;;;;5044377;28;20182;-86
2021/07/23 12:03:21;;;;;;;5.87;1.80;;;22.20;99.90;;;;;;5030005;28;20595;-87
2021/07/23 12:05:47;;;;;;;2.80;1.67;;;22.80;99.90;;;;;;5064801;28;20306;-87
2021/07/23 12:08:13;;;;;;;1.97;1.50;;;22.90;99.90;;;;;;5039682;28;20210;-88
2021/07/23 12:10:39;;;;;;;2.42;1.80;;;23.20;99.90;;;;;;5030429;28;20299;-95
2021/07/23 12:13:07;;;;;;;2.85;1.88;;;23.50;99.90;;;;;;5030438;28;20543;-87
2021/07/23 12:15:44;;;;;;;2.67;1.90;;;23.50;99.90;;;;;;5030116;28;20238;-92
2021/07/23 12:18:18;;;;;;;4.07;1.97;;;23.20;99.90;;;;;;5028482;28;20224;-88
2021/07/23 12:20:43;;;;;;;2.83;2.03;;;23.80;99.90;;;;;;5038365;28;20240;-86
2021/07/23 12:23:10;;;;;;;3.10;1.90;;;23.90;99.90;;;;;;5027593;28;20700;-88
2021/07/23 12:25:43;;;;;;;2.58;1.65;;;23.90;99.90;;;;;;5001891;28;20763;-93
2021/07/23 12:28:12;;;;;;;2.80;1.77;;;23.30;99.90;;;;;;5035437;28;20261;-85
2021/07/23 12:30:40;;;;;;;4.78;2.40;;;23.40;99.90;;;;;;5041702;28;20193;-86
2021/07/23 12:33:13;;;;;;;3.85;1.85;;;23.00;99.90;;;;;;5058569;28;20247;-84
2021/07/23 12:35:46;;;;;;;5.15;2.22;;;22.90;99.90;;;;;;5042595;28;20259;-86
2021/07/23 12:38:13;;;;;;;3.90;1.90;;;22.90;99.90;;;;;;5051418;28;20221;-86
2021/07/23 12:40:50;;;;;;;1.90;1.80;;;22.60;99.90;;;;;;5051364;28;20320;-89
2021/07/23 12:43:22;;;;;;;3.03;1.60;;;22.80;99.90;;;;;;5030537;28;20480;-88
2021/07/23 12:45:48;;;;;;;4.25;1.85;;;22.90;99.90;;;;;;5039069;28;20328;-91
2021/07/23 12:48:22;;;;;;;6.25;2.28;;;23.00;99.90;;;;;;5040572;28;20277;-85